Sand Lake, Florida
Current Conditions -  °F | °C
As of 4:53 AM on Thursday 29 Jan 2015 (Local Time) from KMCO Reporting Station
Clear Clear  
Wind Chill: 41°   Ceiling: Unl
Heat Index: 44°   Visibility: 10mi
Dew Point: 40°   Wind: 6mph
Humidity: 85%   Direction: 310°NW
Pressure: 30.27"   Gusts: NA
Location:  28.4565°N, 81.4676°W
Report Text: KMCO 290953Z 31005KT 10SM CLR 07/04 A3027 RMK AO2 SLP248 T00670044
Loading
Personal Weather Stations






























Interactive Weather Map New forecast layout! Learn more

10-Day Weather Forecast

Advertisements
Track Severe Weather on mobile